sensor_id;sensor_type;location;lat;lon;timestamp;pressure;altitude;pressure_sealevel;temperature;humidity
70488;BME280;57976;48.174;16.370;2022-12-18T00:01:43;100807.45;;;0.69;73.26
70488;BME280;57976;48.174;16.370;2022-12-18T00:03:47;100804.13;;;0.71;73.54
70488;BME280;57976;48.174;16.370;2022-12-18T00:05:50;100801.36;;;0.71;73.43
70488;BME280;57976;48.174;16.370;2022-12-18T00:07:53;100806.61;;;0.69;73.00
70488;BME280;57976;48.174;16.370;2022-12-18T00:09:56;100805.92;;;0.66;73.04
70488;BME280;57976;48.174;16.370;2022-12-18T00:11:58;100807.68;;;0.66;73.32
70488;BME280;57976;48.174;16.370;2022-12-18T00:14:01;100815.36;;;0.66;73.28
70488;BME280;57976;48.174;16.370;2022-12-18T00:16:06;100819.01;;;0.64;73.44
70488;BME280;57976;48.174;16.370;2022-12-18T00:18:10;100823.45;;;0.62;73.89
70488;BME280;57976;48.174;16.370;2022-12-18T00:20:17;100823.03;;;0.61;73.96
70488;BME280;57976;48.174;16.370;2022-12-18T00:22:19;100826.52;;;0.59;74.22
70488;BME280;57976;48.174;16.370;2022-12-18T00:24:22;100822.83;;;0.56;74.17
70488;BME280;57976;48.174;16.370;2022-12-18T00:26:26;100826.29;;;0.54;74.42
70488;BME280;57976;48.174;16.370;2022-12-18T00:28:31;100825.58;;;0.51;74.68
70488;BME280;57976;48.174;16.370;2022-12-18T00:30:34;100832.80;;;0.51;74.54
70488;BME280;57976;48.174;16.370;2022-12-18T00:32:37;100839.54;;;0.47;74.44
70488;BME280;57976;48.174;16.370;2022-12-18T00:34:39;100837.40;;;0.42;73.25
70488;BME280;57976;48.174;16.370;2022-12-18T00:36:42;100842.73;;;0.36;72.99
70488;BME280;57976;48.174;16.370;2022-12-18T00:38:46;100843.21;;;0.28;73.10
70488;BME280;57976;48.174;16.370;2022-12-18T00:40:49;100846.49;;;0.23;72.99
70488;BME280;57976;48.174;16.370;2022-12-18T00:42:51;100840.15;;;0.19;72.94
70488;BME280;57976;48.174;16.370;2022-12-18T00:44:54;100840.40;;;0.15;73.10
70488;BME280;57976;48.174;16.370;2022-12-18T00:46:57;100839.16;;;0.13;73.34
70488;BME280;57976;48.174;16.370;2022-12-18T00:49:00;100840.23;;;0.09;73.30
70488;BME280;57976;48.174;16.370;2022-12-18T00:51:03;100841.00;;;0.08;73.20
70488;BME280;57976;48.174;16.370;2022-12-18T00:53:05;100845.15;;;0.07;73.28
70488;BME280;57976;48.174;16.370;2022-12-18T00:55:09;100848.69;;;0.00;73.18
70488;BME280;57976;48.174;16.370;2022-12-18T00:57:12;100846.34;;;-0.07;73.37
70488;BME280;57976;48.174;16.370;2022-12-18T00:59:14;100848.65;;;-0.10;73.47
70488;BME280;57976;48.174;16.370;2022-12-18T01:01:18;100849.29;;;-0.15;73.70
70488;BME280;57976;48.174;16.370;2022-12-18T01:03:21;100850.70;;;-0.15;73.82
70488;BME280;57976;48.174;16.370;2022-12-18T01:05:24;100860.80;;;-0.15;74.11
70488;BME280;57976;48.174;16.370;2022-12-18T01:07:28;100862.29;;;-0.16;74.30
70488;BME280;57976;48.174;16.370;2022-12-18T01:09:31;100866.59;;;-0.21;74.29
70488;BME280;57976;48.174;16.370;2022-12-18T01:11:34;100870.11;;;-0.24;74.51
70488;BME280;57976;48.174;16.370;2022-12-18T01:13:36;100871.16;;;-0.29;74.89
70488;BME280;57976;48.174;16.370;2022-12-18T01:15:40;100874.06;;;-0.34;75.03
70488;BME280;57976;48.174;16.370;2022-12-18T01:17:52;100878.84;;;-0.38;75.41
70488;BME280;57976;48.174;16.370;2022-12-18T01:19:55;100878.21;;;-0.42;75.60
70488;BME280;57976;48.174;16.370;2022-12-18T01:21:58;100874.54;;;-0.47;75.84
70488;BME280;57976;48.174;16.370;2022-12-18T01:24:01;100876.88;;;-0.52;76.42
70488;BME280;57976;48.174;16.370;2022-12-18T01:26:06;100877.77;;;-0.54;76.42
70488;BME280;57976;48.174;16.370;2022-12-18T01:28:10;100875.11;;;-0.59;76.61
70488;BME280;57976;48.174;16.370;2022-12-18T01:30:13;100873.17;;;-0.67;76.82
70488;BME280;57976;48.174;16.370;2022-12-18T01:32:16;100879.30;;;-0.74;77.21
70488;BME280;57976;48.174;16.370;2022-12-18T01:34:19;100881.77;;;-0.78;77.39
70488;BME280;57976;48.174;16.370;2022-12-18T01:36:23;100886.86;;;-0.81;77.64
70488;BME280;57976;48.174;16.370;2022-12-18T01:38:26;100887.80;;;-0.82;77.95
70488;BME280;57976;48.174;16.370;2022-12-18T01:40:30;100892.55;;;-0.83;78.11
70488;BME280;57976;48.174;16.370;2022-12-18T01:42:33;100894.66;;;-0.86;78.18
70488;BME280;57976;48.174;16.370;2022-12-18T01:45:06;100895.34;;;-0.89;77.93
70488;BME280;57976;48.174;16.370;2022-12-18T01:47:09;100897.98;;;-0.92;78.10
70488;BME280;57976;48.174;16.370;2022-12-18T01:49:15;100897.20;;;-0.94;78.21
70488;BME280;57976;48.174;16.370;2022-12-18T01:51:18;100899.03;;;-0.98;78.16
70488;BME280;57976;48.174;16.370;2022-12-18T01:53:22;100895.66;;;-1.03;78.38
70488;BME280;57976;48.174;16.370;2022-12-18T01:55:29;100898.52;;;-1.07;78.48
70488;BME280;57976;48.174;16.370;2022-12-18T01:57:33;100899.43;;;-1.11;78.68
70488;BME280;57976;48.174;16.370;2022-12-18T01:59:37;100899.90;;;-1.13;79.00
70488;BME280;57976;48.174;16.370;2022-12-18T02:01:43;100898.08;;;-1.14;79.07
70488;BME280;57976;48.174;16.370;2022-12-18T02:03:46;100901.60;;;-1.15;79.05
70488;BME280;57976;48.174;16.370;2022-12-18T02:05:54;100904.66;;;-1.17;79.24
70488;BME280;57976;48.174;16.370;2022-12-18T02:08:08;100902.27;;;-1.21;79.46
70488;BME280;57976;48.174;16.370;2022-12-18T02:10:17;100906.77;;;-1.23;79.67
70488;BME280;57976;48.174;16.370;2022-12-18T02:12:23;100906.13;;;-1.24;79.87
70488;BME280;57976;48.174;16.370;2022-12-18T02:14:34;100912.51;;;-1.26;80.00
70488;BME280;57976;48.174;16.370;2022-12-18T02:16:46;100913.10;;;-1.30;79.99
70488;BME280;57976;48.174;16.370;2022-12-18T02:18:56;100916.95;;;-1.33;80.17
70488;BME280;57976;48.174;16.370;2022-12-18T02:21:07;100916.80;;;-1.37;80.18
70488;BME280;57976;48.174;16.370;2022-12-18T02:23:24;100919.95;;;-1.37;80.30
70488;BME280;57976;48.174;16.370;2022-12-18T02:25:43;100916.20;;;-1.38;80.58
70488;BME280;57976;48.174;16.370;2022-12-18T02:27:51;100917.69;;;-1.40;80.69
70488;BME280;57976;48.174;16.370;2022-12-18T02:29:57;100918.36;;;-1.42;80.67
70488;BME280;57976;48.174;16.370;2022-12-18T02:32:06;100920.07;;;-1.45;80.92
70488;BME280;57976;48.174;16.370;2022-12-18T02:34:09;100920.95;;;-1.45;81.02
70488;BME280;57976;48.174;16.370;2022-12-18T02:36:14;100918.16;;;-1.45;81.28
70488;BME280;57976;48.174;16.370;2022-12-18T02:38:18;100921.23;;;-1.44;81.13
70488;BME280;57976;48.174;16.370;2022-12-18T02:40:23;100924.12;;;-1.43;81.10
70488;BME280;57976;48.174;16.370;2022-12-18T02:42:28;100926.52;;;-1.46;80.93
70488;BME280;57976;48.174;16.370;2022-12-18T02:44:31;100929.44;;;-1.47;81.09
70488;BME280;57976;48.174;16.370;2022-12-18T02:46:36;100927.02;;;-1.48;81.19
70488;BME280;57976;48.174;16.370;2022-12-18T02:48:44;100926.77;;;-1.50;81.16
70488;BME280;57976;48.174;16.370;2022-12-18T02:50:53;100930.48;;;-1.51;81.26
70488;BME280;57976;48.174;16.370;2022-12-18T02:53:09;100932.00;;;-1.53;81.28
70488;BME280;57976;48.174;16.370;2022-12-18T02:55:21;100938.20;;;-1.55;81.51
70488;BME280;57976;48.174;16.370;2022-12-18T02:57:35;100939.95;;;-1.55;81.38
70488;BME280;57976;48.174;16.370;2022-12-18T02:59:45;100945.90;;;-1.55;81.34
70488;BME280;57976;48.174;16.370;2022-12-18T03:01:54;100946.23;;;-1.55;81.36
70488;BME280;57976;48.174;16.370;2022-12-18T03:04:02;100951.73;;;-1.54;81.34
70488;BME280;57976;48.174;16.370;2022-12-18T03:06:10;100962.55;;;-1.54;81.14
70488;BME280;57976;48.174;16.370;2022-12-18T03:08:17;100960.17;;;-1.55;81.05
70488;BME280;57976;48.174;16.370;2022-12-18T03:10:25;100956.94;;;-1.57;81.01
70488;BME280;57976;48.174;16.370;2022-12-18T03:12:32;100958.31;;;-1.59;81.00
70488;BME280;57976;48.174;16.370;2022-12-18T03:14:38;100960.00;;;-1.59;81.19
70488;BME280;57976;48.174;16.370;2022-12-18T03:16:44;100956.67;;;-1.58;81.17
70488;BME280;57976;48.174;16.370;2022-12-18T03:18:49;100954.70;;;-1.57;81.39
70488;BME280;57976;48.174;16.370;2022-12-18T03:20:56;100952.33;;;-1.55;81.23
70488;BME280;57976;48.174;16.370;2022-12-18T03:23:06;100951.85;;;-1.53;81.35
70488;BME280;57976;48.174;16.370;2022-12-18T03:25:12;100952.61;;;-1.51;81.11
70488;BME280;57976;48.174;16.370;2022-12-18T03:27:18;100948.41;;;-1.51;80.95
70488;BME280;57976;48.174;16.370;2022-12-18T03:29:27;100950.75;;;-1.52;80.85
70488;BME280;57976;48.174;16.370;2022-12-18T03:31:33;100950.05;;;-1.52;80.81
70488;BME280;57976;48.174;16.370;2022-12-18T03:33:39;100948.80;;;-1.51;80.95
70488;BME280;57976;48.174;16.370;2022-12-18T03:35:45;100951.08;;;-1.48;81.03
70488;BME280;57976;48.174;16.370;2022-12-18T03:37:48;100957.41;;;-1.46;80.99
70488;BME280;57976;48.174;16.370;2022-12-18T03:39:51;100954.98;;;-1.46;80.88
70488;BME280;57976;48.174;16.370;2022-12-18T03:42:00;100956.84;;;-1.48;80.92
70488;BME280;57976;48.174;16.370;2022-12-18T03:44:15;100961.30;;;-1.50;80.80
70488;BME280;57976;48.174;16.370;2022-12-18T03:46:28;100962.78;;;-1.52;80.78
70488;BME280;57976;48.174;16.370;2022-12-18T03:48:37;100966.32;;;-1.53;80.63
70488;BME280;57976;48.174;16.370;2022-12-18T03:50:48;100968.13;;;-1.54;80.77
70488;BME280;57976;48.174;16.370;2022-12-18T03:52:58;100965.43;;;-1.56;80.68
70488;BME280;57976;48.174;16.370;2022-12-18T03:55:04;100969.29;;;-1.57;80.92
70488;BME280;57976;48.174;16.370;2022-12-18T03:57:11;100967.52;;;-1.56;80.81
70488;BME280;57976;48.174;16.370;2022-12-18T03:59:17;100970.70;;;-1.56;80.57
70488;BME280;57976;48.174;16.370;2022-12-18T04:01:24;100975.09;;;-1.60;80.64
70488;BME280;57976;48.174;16.370;2022-12-18T04:03:29;100978.82;;;-1.65;80.44
70488;BME280;57976;48.174;16.370;2022-12-18T04:05:34;100981.51;;;-1.66;80.66
70488;BME280;57976;48.174;16.370;2022-12-18T04:07:38;100984.14;;;-1.66;80.94
70488;BME280;57976;48.174;16.370;2022-12-18T04:09:46;100981.98;;;-1.65;80.99
70488;BME280;57976;48.174;16.370;2022-12-18T04:11:52;100983.89;;;-1.65;81.07
70488;BME280;57976;48.174;16.370;2022-12-18T04:13:56;100986.91;;;-1.63;80.92
70488;BME280;57976;48.174;16.370;2022-12-18T04:15:59;100993.14;;;-1.66;80.90
70488;BME280;57976;48.174;16.370;2022-12-18T04:18:02;100995.94;;;-1.69;80.95
70488;BME280;57976;48.174;16.370;2022-12-18T04:20:11;100995.17;;;-1.68;81.33
70488;BME280;57976;48.174;16.370;2022-12-18T04:22:14;100994.19;;;-1.69;81.07
70488;BME280;57976;48.174;16.370;2022-12-18T04:24:19;100999.76;;;-1.69;81.16
70488;BME280;57976;48.174;16.370;2022-12-18T04:26:29;101003.21;;;-1.68;81.16
70488;BME280;57976;48.174;16.370;2022-12-18T04:28:53;101001.85;;;-1.69;81.32
70488;BME280;57976;48.174;16.370;2022-12-18T04:30:56;100999.40;;;-1.65;81.51
70488;BME280;57976;48.174;16.370;2022-12-18T04:32:59;101003.48;;;-1.60;81.51
70488;BME280;57976;48.174;16.370;2022-12-18T04:35:02;101007.46;;;-1.57;81.51
70488;BME280;57976;48.174;16.370;2022-12-18T04:37:05;101010.14;;;-1.55;81.50
70488;BME280;57976;48.174;16.370;2022-12-18T04:39:08;101013.43;;;-1.52;81.55
70488;BME280;57976;48.174;16.370;2022-12-18T04:41:12;101014.63;;;-1.51;81.11
70488;BME280;57976;48.174;16.370;2022-12-18T04:43:15;101019.38;;;-1.52;81.17
70488;BME280;57976;48.174;16.370;2022-12-18T04:45:18;101020.01;;;-1.51;81.43
70488;BME280;57976;48.174;16.370;2022-12-18T04:47:20;101020.56;;;-1.51;81.62
70488;BME280;57976;48.174;16.370;2022-12-18T04:49:23;101021.66;;;-1.49;81.39
70488;BME280;57976;48.174;16.370;2022-12-18T04:51:26;101022.07;;;-1.47;81.38
70488;BME280;57976;48.174;16.370;2022-12-18T04:53:29;101019.73;;;-1.45;80.91
70488;BME280;57976;48.174;16.370;2022-12-18T04:55:31;101022.27;;;-1.44;81.10
70488;BME280;57976;48.174;16.370;2022-12-18T04:57:34;101024.61;;;-1.39;81.22
70488;BME280;57976;48.174;16.370;2022-12-18T04:59:36;101026.77;;;-1.34;81.26
70488;BME280;57976;48.174;16.370;2022-12-18T05:01:43;101029.15;;;-1.27;81.06
70488;BME280;57976;48.174;16.370;2022-12-18T05:03:46;101033.06;;;-1.22;80.96
70488;BME280;57976;48.174;16.370;2022-12-18T05:05:50;101038.31;;;-1.19;80.46
70488;BME280;57976;48.174;16.370;2022-12-18T05:07:53;101040.12;;;-1.24;80.12
70488;BME280;57976;48.174;16.370;2022-12-18T05:09:56;101040.41;;;-1.29;80.04
70488;BME280;57976;48.174;16.370;2022-12-18T05:12:01;101046.16;;;-1.29;80.44
70488;BME280;57976;48.174;16.370;2022-12-18T05:14:04;101052.99;;;-1.29;80.27
70488;BME280;57976;48.174;16.370;2022-12-18T05:16:08;101050.71;;;-1.32;80.47
70488;BME280;57976;48.174;16.370;2022-12-18T05:18:11;101055.17;;;-1.31;80.91
70488;BME280;57976;48.174;16.370;2022-12-18T05:20:13;101058.25;;;-1.30;81.20
70488;BME280;57976;48.174;16.370;2022-12-18T05:22:16;101057.88;;;-1.29;81.62
70488;BME280;57976;48.174;16.370;2022-12-18T05:24:19;101055.61;;;-1.29;81.89
70488;BME280;57976;48.174;16.370;2022-12-18T05:26:22;101056.16;;;-1.30;82.02
70488;BME280;57976;48.174;16.370;2022-12-18T05:28:26;101054.80;;;-1.31;82.13
70488;BME280;57976;48.174;16.370;2022-12-18T05:30:29;101052.41;;;-1.31;82.42
70488;BME280;57976;48.174;16.370;2022-12-18T05:32:32;101050.30;;;-1.31;82.51
70488;BME280;57976;48.174;16.370;2022-12-18T05:34:34;101053.83;;;-1.32;82.70
70488;BME280;57976;48.174;16.370;2022-12-18T05:36:37;101055.61;;;-1.32;82.59
70488;BME280;57976;48.174;16.370;2022-12-18T05:38:40;101056.20;;;-1.34;82.70
70488;BME280;57976;48.174;16.370;2022-12-18T05:40:43;101058.45;;;-1.33;83.02
70488;BME280;57976;48.174;16.370;2022-12-18T05:42:46;101061.17;;;-1.32;83.25
70488;BME280;57976;48.174;16.370;2022-12-18T05:44:49;101062.86;;;-1.35;82.99
70488;BME280;57976;48.174;16.370;2022-12-18T05:46:51;101063.42;;;-1.42;82.73
70488;BME280;57976;48.174;16.370;2022-12-18T05:48:54;101065.48;;;-1.48;82.95
70488;BME280;57976;48.174;16.370;2022-12-18T05:51:04;101061.59;;;-1.53;83.11
70488;BME280;57976;48.174;16.370;2022-12-18T05:53:07;101061.48;;;-1.57;83.21
70488;BME280;57976;48.174;16.370;2022-12-18T05:55:10;101061.36;;;-1.62;83.40
70488;BME280;57976;48.174;16.370;2022-12-18T05:57:13;101063.23;;;-1.64;83.39
70488;BME280;57976;48.174;16.370;2022-12-18T05:59:15;101065.99;;;-1.67;83.52
70488;BME280;57976;48.174;16.370;2022-12-18T06:01:20;101071.76;;;-1.67;83.84
70488;BME280;57976;48.174;16.370;2022-12-18T06:03:23;101075.38;;;-1.66;83.76
70488;BME280;57976;48.174;16.370;2022-12-18T06:05:36;101074.43;;;-1.65;83.95
70488;BME280;57976;48.174;16.370;2022-12-18T06:07:39;101074.98;;;-1.62;83.95
70488;BME280;57976;48.174;16.370;2022-12-18T06:09:41;101078.45;;;-1.62;83.80
70488;BME280;57976;48.174;16.370;2022-12-18T06:11:44;101079.31;;;-1.62;83.71
70488;BME280;57976;48.174;16.370;2022-12-18T06:13:49;101084.88;;;-1.65;83.93
70488;BME280;57976;48.174;16.370;2022-12-18T06:15:59;101089.83;;;-1.70;83.93
70488;BME280;57976;48.174;16.370;2022-12-18T06:18:04;101093.22;;;-1.71;84.33
70488;BME280;57976;48.174;16.370;2022-12-18T06:20:08;101098.57;;;-1.74;84.22
70488;BME280;57976;48.174;16.370;2022-12-18T06:22:11;101102.09;;;-1.77;84.24
70488;BME280;57976;48.174;16.370;2022-12-18T06:24:13;101103.30;;;-1.80;84.39
70488;BME280;57976;48.174;16.370;2022-12-18T06:26:16;101101.23;;;-1.84;84.56
70488;BME280;57976;48.174;16.370;2022-12-18T06:28:19;101109.45;;;-1.88;84.39
70488;BME280;57976;48.174;16.370;2022-12-18T06:30:23;101112.58;;;-1.92;84.72
70488;BME280;57976;48.174;16.370;2022-12-18T06:32:27;101120.98;;;-1.92;84.83
70488;BME280;57976;48.174;16.370;2022-12-18T06:34:32;101118.38;;;-1.93;84.82
70488;BME280;57976;48.174;16.370;2022-12-18T06:36:35;101113.24;;;-1.91;84.64
70488;BME280;57976;48.174;16.370;2022-12-18T06:38:42;101112.35;;;-1.91;85.66
70488;BME280;57976;48.174;16.370;2022-12-18T06:40:45;101111.78;;;-1.87;89.37
70488;BME280;57976;48.174;16.370;2022-12-18T06:42:48;101118.92;;;-1.83;88.08
70488;BME280;57976;48.174;16.370;2022-12-18T06:44:51;101118.01;;;-1.82;86.32
70488;BME280;57976;48.174;16.370;2022-12-18T06:46:53;101119.83;;;-1.87;85.50
70488;BME280;57976;48.174;16.370;2022-12-18T06:48:56;101121.02;;;-1.90;85.31
70488;BME280;57976;48.174;16.370;2022-12-18T06:50:59;101122.45;;;-1.91;85.14
70488;BME280;57976;48.174;16.370;2022-12-18T06:53:01;101127.16;;;-1.91;84.75
70488;BME280;57976;48.174;16.370;2022-12-18T06:55:06;101129.07;;;-1.94;84.86
70488;BME280;57976;48.174;16.370;2022-12-18T06:57:10;101132.71;;;-1.94;85.00
70488;BME280;57976;48.174;16.370;2022-12-18T06:59:14;101135.58;;;-1.92;85.18
70488;BME280;57976;48.174;16.370;2022-12-18T07:01:16;101137.15;;;-1.89;85.26
70488;BME280;57976;48.174;16.370;2022-12-18T07:03:19;101143.16;;;-1.87;85.21
70488;BME280;57976;48.174;16.370;2022-12-18T07:05:22;101144.27;;;-1.88;84.66
70488;BME280;57976;48.174;16.370;2022-12-18T07:07:25;101146.30;;;-1.87;85.04
70488;BME280;57976;48.174;16.370;2022-12-18T07:09:27;101151.89;;;-1.87;84.41
70488;BME280;57976;48.174;16.370;2022-12-18T07:11:33;101154.31;;;-1.87;84.38
70488;BME280;57976;48.174;16.370;2022-12-18T07:13:36;101155.00;;;-1.87;84.22
70488;BME280;57976;48.174;16.370;2022-12-18T07:15:39;101152.23;;;-1.84;84.50
70488;BME280;57976;48.174;16.370;2022-12-18T07:17:42;101158.39;;;-1.79;84.90
70488;BME280;57976;48.174;16.370;2022-12-18T07:19:45;101158.30;;;-1.77;84.47
70488;BME280;57976;48.174;16.370;2022-12-18T07:21:47;101158.77;;;-1.76;84.25
70488;BME280;57976;48.174;16.370;2022-12-18T07:23:51;101164.37;;;-1.73;84.34
70488;BME280;57976;48.174;16.370;2022-12-18T07:25:54;101174.58;;;-1.68;84.48
70488;BME280;57976;48.174;16.370;2022-12-18T07:27:57;101175.08;;;-1.65;84.55
70488;BME280;57976;48.174;16.370;2022-12-18T07:30:00;101182.14;;;-1.57;84.68
70488;BME280;57976;48.174;16.370;2022-12-18T07:32:04;101182.61;;;-1.52;84.44
70488;BME280;57976;48.174;16.370;2022-12-18T07:34:10;101182.14;;;-1.56;84.37
70488;BME280;57976;48.174;16.370;2022-12-18T07:36:14;101188.04;;;-1.60;86.11
70488;BME280;57976;48.174;16.370;2022-12-18T07:38:16;101191.23;;;-1.60;86.61
70488;BME280;57976;48.174;16.370;2022-12-18T07:40:19;101189.40;;;-1.59;87.40
70488;BME280;57976;48.174;16.370;2022-12-18T07:42:22;101190.03;;;-1.54;87.50
70488;BME280;57976;48.174;16.370;2022-12-18T07:44:25;101191.42;;;-1.54;86.37
70488;BME280;57976;48.174;16.370;2022-12-18T07:46:28;101196.98;;;-1.54;86.25
70488;BME280;57976;48.174;16.370;2022-12-18T07:48:30;101198.09;;;-1.52;86.28
70488;BME280;57976;48.174;16.370;2022-12-18T07:50:33;101205.23;;;-1.48;86.12
70488;BME280;57976;48.174;16.370;2022-12-18T07:52:36;101209.73;;;-1.48;85.90
70488;BME280;57976;48.174;16.370;2022-12-18T07:54:39;101213.11;;;-1.45;85.46
70488;BME280;57976;48.174;16.370;2022-12-18T07:56:42;101215.02;;;-1.52;84.96
70488;BME280;57976;48.174;16.370;2022-12-18T07:58:45;101218.96;;;-1.58;84.76
70488;BME280;57976;48.174;16.370;2022-12-18T08:00:50;101222.71;;;-1.63;84.78
70488;BME280;57976;48.174;16.370;2022-12-18T08:02:53;101226.23;;;-1.63;85.15
70488;BME280;57976;48.174;16.370;2022-12-18T08:04:56;101230.98;;;-1.65;84.97
70488;BME280;57976;48.174;16.370;2022-12-18T08:06:58;101235.15;;;-1.68;84.57
70488;BME280;57976;48.174;16.370;2022-12-18T08:09:01;101232.65;;;-1.67;84.72
70488;BME280;57976;48.174;16.370;2022-12-18T08:11:04;101231.54;;;-1.65;84.57
70488;BME280;57976;48.174;16.370;2022-12-18T08:13:07;101229.46;;;-1.65;84.46
70488;BME280;57976;48.174;16.370;2022-12-18T08:15:10;101230.96;;;-1.64;84.49
70488;BME280;57976;48.174;16.370;2022-12-18T08:17:13;101228.39;;;-1.62;84.50
70488;BME280;57976;48.174;16.370;2022-12-18T08:19:16;101228.36;;;-1.58;84.44
70488;BME280;57976;48.174;16.370;2022-12-18T08:21:21;101236.36;;;-1.51;84.72
70488;BME280;57976;48.174;16.370;2022-12-18T08:23:24;101236.73;;;-1.44;84.46
70488;BME280;57976;48.174;16.370;2022-12-18T08:25:31;101235.73;;;-1.42;84.12
70488;BME280;57976;48.174;16.370;2022-12-18T08:27:33;101235.75;;;-1.38;83.95
70488;BME280;57976;48.174;16.370;2022-12-18T08:29:36;101224.69;;;-1.34;84.14
70488;BME280;57976;48.174;16.370;2022-12-18T08:31:39;101225.48;;;-1.29;84.00
70488;BME280;57976;48.174;16.370;2022-12-18T08:33:42;101226.44;;;-1.24;83.97
70488;BME280;57976;48.174;16.370;2022-12-18T08:35:46;101231.27;;;-1.23;83.70
70488;BME280;57976;48.174;16.370;2022-12-18T08:37:48;101224.81;;;-1.20;83.78
70488;BME280;57976;48.174;16.370;2022-12-18T08:39:52;101227.21;;;-1.16;83.17
70488;BME280;57976;48.174;16.370;2022-12-18T08:41:54;101229.12;;;-1.12;83.26
70488;BME280;57976;48.174;16.370;2022-12-18T08:43:57;101232.17;;;-1.07;83.60
70488;BME280;57976;48.174;16.370;2022-12-18T08:46:00;101236.42;;;-1.02;83.42
70488;BME280;57976;48.174;16.370;2022-12-18T08:48:03;101236.51;;;-0.97;83.11
70488;BME280;57976;48.174;16.370;2022-12-18T08:50:07;101239.60;;;-0.96;82.78
70488;BME280;57976;48.174;16.370;2022-12-18T08:52:09;101238.80;;;-0.98;82.76
70488;BME280;57976;48.174;16.370;2022-12-18T08:54:12;101234.02;;;-0.96;82.81
70488;BME280;57976;48.174;16.370;2022-12-18T08:56:16;101242.95;;;-0.94;82.52
70488;BME280;57976;48.174;16.370;2022-12-18T08:58:19;101252.17;;;-0.96;82.18
70488;BME280;57976;48.174;16.370;2022-12-18T09:00:22;101252.70;;;-1.00;82.07
70488;BME280;57976;48.174;16.370;2022-12-18T09:02:24;101252.94;;;-1.01;82.37
70488;BME280;57976;48.174;16.370;2022-12-18T09:04:27;101250.74;;;-0.99;82.31
70488;BME280;57976;48.174;16.370;2022-12-18T09:06:30;101248.77;;;-1.02;82.32
70488;BME280;57976;48.174;16.370;2022-12-18T09:08:35;101251.86;;;-1.04;82.30
70488;BME280;57976;48.174;16.370;2022-12-18T09:10:43;101251.39;;;-1.02;82.49
70488;BME280;57976;48.174;16.370;2022-12-18T09:12:46;101249.74;;;-0.97;82.63
70488;BME280;57976;48.174;16.370;2022-12-18T09:14:50;101254.44;;;-0.90;82.57
70488;BME280;57976;48.174;16.370;2022-12-18T09:16:52;101253.31;;;-0.86;82.37
70488;BME280;57976;48.174;16.370;2022-12-18T09:18:56;101261.84;;;-0.82;82.11
70488;BME280;57976;48.174;16.370;2022-12-18T09:20:59;101260.85;;;-0.83;81.88
70488;BME280;57976;48.174;16.370;2022-12-18T09:23:01;101260.80;;;-0.85;81.45
70488;BME280;57976;48.174;16.370;2022-12-18T09:25:05;101270.19;;;-0.91;81.46
70488;BME280;57976;48.174;16.370;2022-12-18T09:27:08;101263.88;;;-0.97;81.73
70488;BME280;57976;48.174;16.370;2022-12-18T09:29:10;101257.56;;;-1.00;81.82
70488;BME280;57976;48.174;16.370;2022-12-18T09:31:13;101254.76;;;-0.99;81.81
70488;BME280;57976;48.174;16.370;2022-12-18T09:33:16;101257.29;;;-0.94;82.05
70488;BME280;57976;48.174;16.370;2022-12-18T09:35:19;101259.46;;;-0.93;81.72
70488;BME280;57976;48.174;16.370;2022-12-18T09:37:22;101260.52;;;-0.93;81.75
70488;BME280;57976;48.174;16.370;2022-12-18T09:39:24;101254.48;;;-0.94;81.90
70488;BME280;57976;48.174;16.370;2022-12-18T09:41:43;101251.63;;;-0.96;81.84
70488;BME280;57976;48.174;16.370;2022-12-18T09:43:49;101247.29;;;-0.97;81.82
70488;BME280;57976;48.174;16.370;2022-12-18T09:45:56;101249.45;;;-0.94;81.97
70488;BME280;57976;48.174;16.370;2022-12-18T09:48:02;101256.39;;;-0.91;81.83
70488;BME280;57976;48.174;16.370;2022-12-18T09:50:20;101259.39;;;-0.92;81.71
70488;BME280;57976;48.174;16.370;2022-12-18T09:52:28;101253.99;;;-0.88;81.44
70488;BME280;57976;48.174;16.370;2022-12-18T09:54:38;101249.48;;;-0.89;81.26
70488;BME280;57976;48.174;16.370;2022-12-18T09:56:44;101249.49;;;-0.89;81.15
70488;BME280;57976;48.174;16.370;2022-12-18T09:58:51;101248.36;;;-0.91;81.25
70488;BME280;57976;48.174;16.370;2022-12-18T10:00:55;101239.66;;;-0.91;81.14
70488;BME280;57976;48.174;16.370;2022-12-18T10:03:02;101238.10;;;-0.85;81.52
70488;BME280;57976;48.174;16.370;2022-12-18T10:05:10;101240.91;;;-0.79;81.49
70488;BME280;57976;48.174;16.370;2022-12-18T10:07:19;101243.45;;;-0.74;81.48
70488;BME280;57976;48.174;16.370;2022-12-18T10:09:33;101246.05;;;-0.77;80.76
70488;BME280;57976;48.174;16.370;2022-12-18T10:11:47;101241.53;;;-0.81;80.56
70488;BME280;57976;48.174;16.370;2022-12-18T10:13:54;101236.50;;;-0.84;80.23
70488;BME280;57976;48.174;16.370;2022-12-18T10:16:07;101234.52;;;-0.89;80.13
70488;BME280;57976;48.174;16.370;2022-12-18T10:18:23;101238.06;;;-0.90;80.22
70488;BME280;57976;48.174;16.370;2022-12-18T10:20:34;101237.73;;;-0.91;80.42
70488;BME280;57976;48.174;16.370;2022-12-18T10:22:50;101240.37;;;-0.85;80.54
70488;BME280;57976;48.174;16.370;2022-12-18T10:25:01;101237.94;;;-0.79;80.20
70488;BME280;57976;48.174;16.370;2022-12-18T10:27:12;101235.21;;;-0.76;79.89
70488;BME280;57976;48.174;16.370;2022-12-18T10:29:16;101231.07;;;-0.74;79.60
70488;BME280;57976;48.174;16.370;2022-12-18T10:31:22;101232.60;;;-0.73;79.67
70488;BME280;57976;48.174;16.370;2022-12-18T10:33:30;101232.77;;;-0.77;79.15
70488;BME280;57976;48.174;16.370;2022-12-18T10:35:35;101233.24;;;-0.82;78.86
70488;BME280;57976;48.174;16.370;2022-12-18T10:38:02;101230.41;;;-0.84;79.42
70488;BME280;57976;48.174;16.370;2022-12-18T10:40:12;101227.37;;;-0.89;79.53
70488;BME280;57976;48.174;16.370;2022-12-18T10:42:24;101233.70;;;-0.84;79.91
70488;BME280;57976;48.174;16.370;2022-12-18T10:44:26;101234.32;;;-0.82;79.82
70488;BME280;57976;48.174;16.370;2022-12-18T10:46:29;101234.17;;;-0.80;80.02